sensor_id;sensor_type;location;lat;lon;timestamp;P1;durP1;ratioP1;P2;durP2;ratioP2
13114;SDS011;6623;52.120;8.660;2023-03-21T00:00:23;11.77;;;7.30;;
13114;SDS011;6623;52.120;8.660;2023-03-21T00:02:49;16.03;;;8.00;;
13114;SDS011;6623;52.120;8.660;2023-03-21T00:05:14;12.63;;;7.73;;
13114;SDS011;6623;52.120;8.660;2023-03-21T00:07:40;17.67;;;8.07;;
13114;SDS011;6623;52.120;8.660;2023-03-21T00:10:06;14.80;;;7.47;;
13114;SDS011;6623;52.120;8.660;2023-03-21T00:12:31;15.67;;;7.40;;
13114;SDS011;6623;52.120;8.660;2023-03-21T00:15:02;12.47;;;8.03;;
13114;SDS011;6623;52.120;8.660;2023-03-21T00:17:31;11.87;;;8.07;;
13114;SDS011;6623;52.120;8.660;2023-03-21T00:19:57;16.73;;;8.37;;
13114;SDS011;6623;52.120;8.660;2023-03-21T00:22:24;13.47;;;7.53;;
13114;SDS011;6623;52.120;8.660;2023-03-21T00:24:51;13.27;;;8.07;;
13114;SDS011;6623;52.120;8.660;2023-03-21T00:27:19;14.50;;;8.30;;
13114;SDS011;6623;52.120;8.660;2023-03-21T00:29:45;14.20;;;7.73;;
13114;SDS011;6623;52.120;8.660;2023-03-21T00:32:20;14.77;;;8.17;;
13114;SDS011;6623;52.120;8.660;2023-03-21T00:34:46;17.60;;;8.33;;
13114;SDS011;6623;52.120;8.660;2023-03-21T00:37:12;13.20;;;8.07;;
13114;SDS011;6623;52.120;8.660;2023-03-21T00:39:40;16.43;;;8.10;;
13114;SDS011;6623;52.120;8.660;2023-03-21T00:42:13;14.20;;;7.80;;
13114;SDS011;6623;52.120;8.660;2023-03-21T00:44:42;12.93;;;7.90;;
13114;SDS011;6623;52.120;8.660;2023-03-21T00:47:10;14.10;;;8.27;;
13114;SDS011;6623;52.120;8.660;2023-03-21T00:49:36;13.93;;;7.93;;
13114;SDS011;6623;52.120;8.660;2023-03-21T00:52:06;16.70;;;8.33;;
13114;SDS011;6623;52.120;8.660;2023-03-21T00:54:36;12.97;;;8.17;;
13114;SDS011;6623;52.120;8.660;2023-03-21T00:57:02;14.70;;;8.27;;
13114;SDS011;6623;52.120;8.660;2023-03-21T00:59:29;18.27;;;8.80;;
13114;SDS011;6623;52.120;8.660;2023-03-21T01:01:55;15.53;;;8.23;;
13114;SDS011;6623;52.120;8.660;2023-03-21T01:04:20;17.10;;;8.93;;
13114;SDS011;6623;52.120;8.660;2023-03-21T01:06:50;21.97;;;8.67;;
13114;SDS011;6623;52.120;8.660;2023-03-21T01:09:17;18.33;;;9.13;;
13114;SDS011;6623;52.120;8.660;2023-03-21T01:11:45;18.13;;;8.93;;
13114;SDS011;6623;52.120;8.660;2023-03-21T01:14:12;16.40;;;8.87;;
13114;SDS011;6623;52.120;8.660;2023-03-21T01:16:39;19.70;;;9.07;;
13114;SDS011;6623;52.120;8.660;2023-03-21T01:19:05;14.87;;;9.73;;
13114;SDS011;6623;52.120;8.660;2023-03-21T01:21:32;17.73;;;9.73;;
13114;SDS011;6623;52.120;8.660;2023-03-21T01:23:58;18.63;;;10.03;;
13114;SDS011;6623;52.120;8.660;2023-03-21T01:26:25;25.93;;;10.40;;
13114;SDS011;6623;52.120;8.660;2023-03-21T01:28:51;17.97;;;10.53;;
13114;SDS011;6623;52.120;8.660;2023-03-21T01:31:17;21.67;;;10.87;;
13114;SDS011;6623;52.120;8.660;2023-03-21T01:33:45;19.90;;;10.47;;
13114;SDS011;6623;52.120;8.660;2023-03-21T01:36:21;19.77;;;11.70;;
13114;SDS011;6623;52.120;8.660;2023-03-21T01:38:50;23.30;;;11.43;;
13114;SDS011;6623;52.120;8.660;2023-03-21T01:41:19;24.37;;;12.07;;
13114;SDS011;6623;52.120;8.660;2023-03-21T01:43:53;19.23;;;11.80;;
13114;SDS011;6623;52.120;8.660;2023-03-21T01:49:18;18.10;;;12.07;;
13114;SDS011;6623;52.120;8.660;2023-03-21T01:51:51;21.50;;;13.00;;
13114;SDS011;6623;52.120;8.660;2023-03-21T01:54:29;21.27;;;13.47;;
13114;SDS011;6623;52.120;8.660;2023-03-21T01:57:02;21.27;;;12.53;;
13114;SDS011;6623;52.120;8.660;2023-03-21T01:59:44;20.23;;;12.10;;
13114;SDS011;6623;52.120;8.660;2023-03-21T02:02:15;20.57;;;12.07;;
13114;SDS011;6623;52.120;8.660;2023-03-21T02:04:52;20.17;;;12.70;;
13114;SDS011;6623;52.120;8.660;2023-03-21T02:07:32;25.87;;;13.30;;
13114;SDS011;6623;52.120;8.660;2023-03-21T02:10:00;22.30;;;12.60;;
13114;SDS011;6623;52.120;8.660;2023-03-21T02:12:29;23.17;;;13.30;;
13114;SDS011;6623;52.120;8.660;2023-03-21T02:14:55;22.80;;;13.17;;
13114;SDS011;6623;52.120;8.660;2023-03-21T02:29:05;24.00;;;13.17;;
13114;SDS011;6623;52.120;8.660;2023-03-21T02:34:34;23.87;;;13.10;;
13114;SDS011;6623;52.120;8.660;2023-03-21T02:37:17;26.63;;;13.93;;
13114;SDS011;6623;52.120;8.660;2023-03-21T02:39:54;23.90;;;14.30;;
13114;SDS011;6623;52.120;8.660;2023-03-21T02:45:35;22.50;;;14.47;;
13114;SDS011;6623;52.120;8.660;2023-03-21T02:48:07;24.83;;;14.30;;
13114;SDS011;6623;52.120;8.660;2023-03-21T02:53:11;25.63;;;15.13;;
13114;SDS011;6623;52.120;8.660;2023-03-21T02:55:40;25.70;;;15.00;;
13114;SDS011;6623;52.120;8.660;2023-03-21T02:58:08;27.47;;;15.20;;
13114;SDS011;6623;52.120;8.660;2023-03-21T03:00:36;24.10;;;15.43;;
13114;SDS011;6623;52.120;8.660;2023-03-21T03:03:02;26.17;;;16.10;;
13114;SDS011;6623;52.120;8.660;2023-03-21T03:05:29;28.60;;;15.47;;
13114;SDS011;6623;52.120;8.660;2023-03-21T03:11:03;27.63;;;16.67;;
13114;SDS011;6623;52.120;8.660;2023-03-21T03:16:48;25.03;;;16.30;;
13114;SDS011;6623;52.120;8.660;2023-03-21T03:19:54;28.00;;;17.63;;
13114;SDS011;6623;52.120;8.660;2023-03-21T03:22:39;25.37;;;17.70;;
13114;SDS011;6623;52.120;8.660;2023-03-21T03:25:11;31.87;;;18.50;;
13114;SDS011;6623;52.120;8.660;2023-03-21T03:27:42;30.20;;;18.47;;
13114;SDS011;6623;52.120;8.660;2023-03-21T03:30:10;29.27;;;18.83;;
13114;SDS011;6623;52.120;8.660;2023-03-21T03:33:10;30.77;;;19.17;;
13114;SDS011;6623;52.120;8.660;2023-03-21T03:35:30;35.57;;;20.37;;
13114;SDS011;6623;52.120;8.660;2023-03-21T03:37:57;35.97;;;20.33;;
13114;SDS011;6623;52.120;8.660;2023-03-21T03:42:55;31.47;;;20.40;;
13114;SDS011;6623;52.120;8.660;2023-03-21T03:45:31;36.87;;;21.23;;
13114;SDS011;6623;52.120;8.660;2023-03-21T03:48:12;34.07;;;19.70;;
13114;SDS011;6623;52.120;8.660;2023-03-21T03:50:50;38.13;;;19.63;;
13114;SDS011;6623;52.120;8.660;2023-03-21T03:56:02;33.60;;;19.00;;
13114;SDS011;6623;52.120;8.660;2023-03-21T03:58:31;37.57;;;20.53;;
13114;SDS011;6623;52.120;8.660;2023-03-21T04:00:58;31.83;;;19.93;;
13114;SDS011;6623;52.120;8.660;2023-03-21T04:03:24;33.03;;;20.43;;
13114;SDS011;6623;52.120;8.660;2023-03-21T04:05:50;37.47;;;19.90;;
13114;SDS011;6623;52.120;8.660;2023-03-21T04:08:15;32.53;;;20.10;;
13114;SDS011;6623;52.120;8.660;2023-03-21T04:10:41;33.73;;;19.50;;
13114;SDS011;6623;52.120;8.660;2023-03-21T04:13:07;34.13;;;19.97;;
13114;SDS011;6623;52.120;8.660;2023-03-21T04:15:33;33.13;;;18.73;;
13114;SDS011;6623;52.120;8.660;2023-03-21T04:17:59;31.90;;;18.70;;
13114;SDS011;6623;52.120;8.660;2023-03-21T04:20:25;30.47;;;18.70;;
13114;SDS011;6623;52.120;8.660;2023-03-21T04:22:51;32.07;;;18.03;;
13114;SDS011;6623;52.120;8.660;2023-03-21T04:25:18;32.80;;;19.07;;
13114;SDS011;6623;52.120;8.660;2023-03-21T04:27:44;31.57;;;18.23;;
13114;SDS011;6623;52.120;8.660;2023-03-21T04:30:11;31.77;;;17.13;;
13114;SDS011;6623;52.120;8.660;2023-03-21T04:32:37;30.80;;;17.47;;
13114;SDS011;6623;52.120;8.660;2023-03-21T04:35:04;28.30;;;17.00;;
13114;SDS011;6623;52.120;8.660;2023-03-21T04:37:33;31.07;;;17.27;;
13114;SDS011;6623;52.120;8.660;2023-03-21T04:40:00;31.10;;;16.43;;
13114;SDS011;6623;52.120;8.660;2023-03-21T04:42:30;33.80;;;17.43;;
13114;SDS011;6623;52.120;8.660;2023-03-21T04:44:56;31.43;;;16.87;;
13114;SDS011;6623;52.120;8.660;2023-03-21T04:47:22;28.87;;;16.00;;
13114;SDS011;6623;52.120;8.660;2023-03-21T04:49:48;29.03;;;15.23;;
13114;SDS011;6623;52.120;8.660;2023-03-21T04:52:14;25.20;;;15.17;;
13114;SDS011;6623;52.120;8.660;2023-03-21T04:54:40;26.30;;;14.60;;
13114;SDS011;6623;52.120;8.660;2023-03-21T04:57:06;21.50;;;14.53;;
13114;SDS011;6623;52.120;8.660;2023-03-21T04:59:32;24.03;;;14.20;;
13114;SDS011;6623;52.120;8.660;2023-03-21T05:01:58;21.77;;;13.00;;
13114;SDS011;6623;52.120;8.660;2023-03-21T05:04:27;25.37;;;13.00;;
13114;SDS011;6623;52.120;8.660;2023-03-21T05:06:54;27.73;;;12.97;;
13114;SDS011;6623;52.120;8.660;2023-03-21T05:09:20;25.03;;;13.57;;
13114;SDS011;6623;52.120;8.660;2023-03-21T05:11:46;25.97;;;13.70;;
13114;SDS011;6623;52.120;8.660;2023-03-21T05:14:16;20.27;;;13.07;;
13114;SDS011;6623;52.120;8.660;2023-03-21T05:16:45;25.73;;;14.07;;
13114;SDS011;6623;52.120;8.660;2023-03-21T05:19:17;26.77;;;13.33;;
13114;SDS011;6623;52.120;8.660;2023-03-21T05:21:48;23.50;;;12.97;;
13114;SDS011;6623;52.120;8.660;2023-03-21T05:24:17;28.23;;;14.03;;
13114;SDS011;6623;52.120;8.660;2023-03-21T05:26:45;22.37;;;13.93;;
13114;SDS011;6623;52.120;8.660;2023-03-21T05:29:23;23.17;;;13.17;;
13114;SDS011;6623;52.120;8.660;2023-03-21T05:31:48;21.90;;;13.00;;
13114;SDS011;6623;52.120;8.660;2023-03-21T05:34:14;22.37;;;12.93;;
13114;SDS011;6623;52.120;8.660;2023-03-21T05:36:40;23.30;;;12.73;;
13114;SDS011;6623;52.120;8.660;2023-03-21T05:39:05;20.57;;;12.17;;
13114;SDS011;6623;52.120;8.660;2023-03-21T05:41:31;23.53;;;12.90;;
13114;SDS011;6623;52.120;8.660;2023-03-21T05:43:56;21.40;;;12.63;;
13114;SDS011;6623;52.120;8.660;2023-03-21T05:46:22;24.53;;;12.67;;
13114;SDS011;6623;52.120;8.660;2023-03-21T05:48:47;22.97;;;12.17;;
13114;SDS011;6623;52.120;8.660;2023-03-21T05:51:13;21.03;;;12.43;;
13114;SDS011;6623;52.120;8.660;2023-03-21T05:53:38;23.73;;;13.27;;
13114;SDS011;6623;52.120;8.660;2023-03-21T05:56:04;20.23;;;12.97;;
13114;SDS011;6623;52.120;8.660;2023-03-21T05:58:30;22.77;;;12.93;;
13114;SDS011;6623;52.120;8.660;2023-03-21T06:00:56;22.20;;;12.87;;
13114;SDS011;6623;52.120;8.660;2023-03-21T06:03:21;23.57;;;12.60;;
13114;SDS011;6623;52.120;8.660;2023-03-21T06:05:47;25.17;;;12.30;;
13114;SDS011;6623;52.120;8.660;2023-03-21T06:08:13;20.67;;;11.63;;
13114;SDS011;6623;52.120;8.660;2023-03-21T06:10:38;21.30;;;12.13;;
13114;SDS011;6623;52.120;8.660;2023-03-21T06:13:04;18.93;;;11.77;;
13114;SDS011;6623;52.120;8.660;2023-03-21T06:15:29;18.80;;;11.70;;
13114;SDS011;6623;52.120;8.660;2023-03-21T06:17:55;15.73;;;11.23;;
13114;SDS011;6623;52.120;8.660;2023-03-21T06:20:21;20.60;;;11.30;;
13114;SDS011;6623;52.120;8.660;2023-03-21T06:22:46;23.80;;;11.87;;
13114;SDS011;6623;52.120;8.660;2023-03-21T06:25:12;16.93;;;11.40;;
13114;SDS011;6623;52.120;8.660;2023-03-21T06:27:41;18.00;;;10.97;;
13114;SDS011;6623;52.120;8.660;2023-03-21T06:30:06;20.57;;;12.13;;
13114;SDS011;6623;52.120;8.660;2023-03-21T06:32:33;20.10;;;11.20;;
13114;SDS011;6623;52.120;8.660;2023-03-21T06:34:58;19.80;;;11.27;;
13114;SDS011;6623;52.120;8.660;2023-03-21T06:37:24;18.43;;;10.50;;
13114;SDS011;6623;52.120;8.660;2023-03-21T06:39:50;18.43;;;10.63;;
13114;SDS011;6623;52.120;8.660;2023-03-21T06:42:19;19.37;;;11.60;;
13114;SDS011;6623;52.120;8.660;2023-03-21T06:44:45;19.13;;;11.10;;
13114;SDS011;6623;52.120;8.660;2023-03-21T06:47:10;21.10;;;10.73;;
13114;SDS011;6623;52.120;8.660;2023-03-21T06:49:36;21.97;;;11.03;;
13114;SDS011;6623;52.120;8.660;2023-03-21T06:52:01;21.60;;;13.47;;
13114;SDS011;6623;52.120;8.660;2023-03-21T06:54:27;18.23;;;10.60;;
13114;SDS011;6623;52.120;8.660;2023-03-21T06:56:53;18.83;;;10.33;;
13114;SDS011;6623;52.120;8.660;2023-03-21T06:59:18;17.77;;;9.87;;
13114;SDS011;6623;52.120;8.660;2023-03-21T07:01:45;18.73;;;10.13;;
13114;SDS011;6623;52.120;8.660;2023-03-21T07:04:11;17.73;;;9.53;;
13114;SDS011;6623;52.120;8.660;2023-03-21T07:06:36;15.23;;;9.50;;
13114;SDS011;6623;52.120;8.660;2023-03-21T07:09:02;19.77;;;9.87;;
13114;SDS011;6623;52.120;8.660;2023-03-21T07:11:32;15.13;;;9.37;;
13114;SDS011;6623;52.120;8.660;2023-03-21T07:13:59;14.50;;;10.00;;
13114;SDS011;6623;52.120;8.660;2023-03-21T07:16:24;15.20;;;9.47;;
13114;SDS011;6623;52.120;8.660;2023-03-21T07:18:50;14.33;;;8.97;;
13114;SDS011;6623;52.120;8.660;2023-03-21T07:21:16;15.50;;;8.73;;
13114;SDS011;6623;52.120;8.660;2023-03-21T07:23:42;17.93;;;9.27;;
13114;SDS011;6623;52.120;8.660;2023-03-21T07:26:08;16.37;;;9.60;;
13114;SDS011;6623;52.120;8.660;2023-03-21T07:28:36;14.53;;;9.30;;
13114;SDS011;6623;52.120;8.660;2023-03-21T07:31:03;17.17;;;9.67;;
13114;SDS011;6623;52.120;8.660;2023-03-21T07:33:30;15.40;;;9.97;;
13114;SDS011;6623;52.120;8.660;2023-03-21T07:35:57;14.53;;;9.70;;
13114;SDS011;6623;52.120;8.660;2023-03-21T07:38:23;18.57;;;10.37;;
13114;SDS011;6623;52.120;8.660;2023-03-21T07:40:49;16.83;;;9.93;;
13114;SDS011;6623;52.120;8.660;2023-03-21T07:43:15;14.40;;;9.17;;
13114;SDS011;6623;52.120;8.660;2023-03-21T07:45:41;17.00;;;9.67;;
13114;SDS011;6623;52.120;8.660;2023-03-21T07:48:08;14.40;;;9.63;;
13114;SDS011;6623;52.120;8.660;2023-03-21T07:50:36;19.83;;;10.70;;
13114;SDS011;6623;52.120;8.660;2023-03-21T07:53:02;16.07;;;9.73;;
13114;SDS011;6623;52.120;8.660;2023-03-21T07:55:28;15.90;;;9.60;;
13114;SDS011;6623;52.120;8.660;2023-03-21T07:57:53;18.43;;;9.67;;
13114;SDS011;6623;52.120;8.660;2023-03-21T08:00:19;15.87;;;10.57;;
13114;SDS011;6623;52.120;8.660;2023-03-21T08:02:49;16.93;;;9.53;;
13114;SDS011;6623;52.120;8.660;2023-03-21T08:05:28;15.00;;;9.77;;
13114;SDS011;6623;52.120;8.660;2023-03-21T08:07:57;17.33;;;9.00;;
13114;SDS011;6623;52.120;8.660;2023-03-21T08:10:23;13.80;;;8.97;;
13114;SDS011;6623;52.120;8.660;2023-03-21T08:12:49;14.20;;;9.37;;
13114;SDS011;6623;52.120;8.660;2023-03-21T08:15:15;17.60;;;9.70;;
13114;SDS011;6623;52.120;8.660;2023-03-21T08:17:40;18.63;;;9.70;;
13114;SDS011;6623;52.120;8.660;2023-03-21T08:20:10;17.50;;;9.33;;
13114;SDS011;6623;52.120;8.660;2023-03-21T08:22:38;14.03;;;9.40;;
13114;SDS011;6623;52.120;8.660;2023-03-21T08:25:05;15.63;;;9.50;;
13114;SDS011;6623;52.120;8.660;2023-03-21T08:27:32;15.33;;;10.23;;
13114;SDS011;6623;52.120;8.660;2023-03-21T08:29:58;18.43;;;9.73;;
13114;SDS011;6623;52.120;8.660;2023-03-21T08:32:24;16.90;;;9.43;;
13114;SDS011;6623;52.120;8.660;2023-03-21T08:34:53;13.90;;;9.00;;
13114;SDS011;6623;52.120;8.660;2023-03-21T08:37:21;14.90;;;9.17;;
13114;SDS011;6623;52.120;8.660;2023-03-21T08:39:47;17.53;;;9.47;;
13114;SDS011;6623;52.120;8.660;2023-03-21T08:42:12;20.83;;;10.20;;
13114;SDS011;6623;52.120;8.660;2023-03-21T08:44:38;15.80;;;9.80;;
13114;SDS011;6623;52.120;8.660;2023-03-21T08:47:05;15.97;;;9.73;;
13114;SDS011;6623;52.120;8.660;2023-03-21T08:49:30;16.97;;;9.63;;
13114;SDS011;6623;52.120;8.660;2023-03-21T08:51:56;18.47;;;9.57;;
13114;SDS011;6623;52.120;8.660;2023-03-21T08:54:22;23.33;;;10.57;;
13114;SDS011;6623;52.120;8.660;2023-03-21T08:56:47;27.40;;;10.70;;
13114;SDS011;6623;52.120;8.660;2023-03-21T08:59:13;19.73;;;9.63;;
13114;SDS011;6623;52.120;8.660;2023-03-21T09:01:39;16.53;;;9.47;;
13114;SDS011;6623;52.120;8.660;2023-03-21T09:04:05;21.03;;;9.97;;
13114;SDS011;6623;52.120;8.660;2023-03-21T09:06:34;23.57;;;10.57;;
13114;SDS011;6623;52.120;8.660;2023-03-21T09:09:01;31.37;;;12.13;;
13114;SDS011;6623;52.120;8.660;2023-03-21T09:11:27;26.53;;;11.57;;
13114;SDS011;6623;52.120;8.660;2023-03-21T09:13:53;24.47;;;11.80;;
13114;SDS011;6623;52.120;8.660;2023-03-21T09:16:18;22.87;;;10.80;;
13114;SDS011;6623;52.120;8.660;2023-03-21T09:18:44;21.30;;;10.70;;
13114;SDS011;6623;52.120;8.660;2023-03-21T09:21:13;26.50;;;11.53;;
13114;SDS011;6623;52.120;8.660;2023-03-21T09:23:40;24.53;;;11.90;;
13114;SDS011;6623;52.120;8.660;2023-03-21T09:26:06;19.70;;;10.83;;
13114;SDS011;6623;52.120;8.660;2023-03-21T09:28:36;24.00;;;11.97;;
13114;SDS011;6623;52.120;8.660;2023-03-21T09:31:02;25.33;;;12.23;;
13114;SDS011;6623;52.120;8.660;2023-03-21T09:33:29;26.67;;;12.17;;
13114;SDS011;6623;52.120;8.660;2023-03-21T09:35:55;30.20;;;11.40;;
13114;SDS011;6623;52.120;8.660;2023-03-21T09:38:22;28.57;;;11.70;;
13114;SDS011;6623;52.120;8.660;2023-03-21T09:41:02;20.73;;;11.50;;
13114;SDS011;6623;52.120;8.660;2023-03-21T09:49:20;23.70;;;11.43;;
13114;SDS011;6623;52.120;8.660;2023-03-21T09:51:49;24.60;;;11.97;;
13114;SDS011;6623;52.120;8.660;2023-03-21T09:54:24;22.43;;;11.03;;
13114;SDS011;6623;52.120;8.660;2023-03-21T09:56:54;20.83;;;11.37;;
13114;SDS011;6623;52.120;8.660;2023-03-21T09:59:35;23.30;;;10.57;;
13114;SDS011;6623;52.120;8.660;2023-03-21T10:05:15;18.20;;;9.03;;
13114;SDS011;6623;52.120;8.660;2023-03-21T10:07:49;17.27;;;9.87;;
13114;SDS011;6623;52.120;8.660;2023-03-21T10:10:22;18.17;;;9.87;;
13114;SDS011;6623;52.120;8.660;2023-03-21T10:12:51;26.23;;;10.67;;
13114;SDS011;6623;52.120;8.660;2023-03-21T10:15:20;19.63;;;9.60;;
13114;SDS011;6623;52.120;8.660;2023-03-21T10:17:54;23.60;;;10.53;;
13114;SDS011;6623;52.120;8.660;2023-03-21T10:20:26;16.80;;;9.40;;
13114;SDS011;6623;52.120;8.660;2023-03-21T10:22:55;25.67;;;10.87;;
13114;SDS011;6623;52.120;8.660;2023-03-21T10:25:47;18.63;;;9.20;;
13114;SDS011;6623;52.120;8.660;2023-03-21T10:28:15;21.50;;;10.17;;
13114;SDS011;6623;52.120;8.660;2023-03-21T10:30:51;14.90;;;9.10;;
13114;SDS011;6623;52.120;8.660;2023-03-21T10:33:23;12.90;;;8.60;;
13114;SDS011;6623;52.120;8.660;2023-03-21T10:38:34;15.03;;;7.87;;
13114;SDS011;6623;52.120;8.660;2023-03-21T10:41:03;13.80;;;7.93;;
13114;SDS011;6623;52.120;8.660;2023-03-21T10:43:31;15.70;;;8.13;;
13114;SDS011;6623;52.120;8.660;2023-03-21T10:46:03;14.43;;;8.13;;
13114;SDS011;6623;52.120;8.660;2023-03-21T10:48:50;11.57;;;7.63;;
13114;SDS011;6623;52.120;8.660;2023-03-21T10:51:21;11.73;;;7.47;;
13114;SDS011;6623;52.120;8.660;2023-03-21T10:53:52;14.23;;;8.30;;
13114;SDS011;6623;52.120;8.660;2023-03-21T10:56:28;9.97;;;7.10;;
13114;SDS011;6623;52.120;8.660;2023-03-21T10:58:56;13.03;;;7.77;;
13114;SDS011;6623;52.120;8.660;2023-03-21T11:03:59;12.53;;;7.87;;
13114;SDS011;6623;52.120;8.660;2023-03-21T11:06:30;13.80;;;8.27;;
13114;SDS011;6623;52.120;8.660;2023-03-21T11:09:59;11.60;;;7.50;;
13114;SDS011;6623;52.120;8.660;2023-03-21T11:12:15;12.00;;;6.90;;
13114;SDS011;6623;52.120;8.660;2023-03-21T11:14:48;10.57;;;7.60;;
13114;SDS011;6623;52.120;8.660;2023-03-21T11:17:19;12.87;;;7.37;;
13114;SDS011;6623;52.120;8.660;2023-03-21T11:20:07;14.97;;;7.60;;
13114;SDS011;6623;52.120;8.660;2023-03-21T11:22:40;18.00;;;8.00;;
13114;SDS011;6623;52.120;8.660;2023-03-21T11:25:08;13.73;;;7.33;;
13114;SDS011;6623;52.120;8.660;2023-03-21T11:27:46;11.20;;;7.40;;
13114;SDS011;6623;52.120;8.660;2023-03-21T11:30:18;15.00;;;7.77;;
13114;SDS011;6623;52.120;8.660;2023-03-21T11:32:49;13.57;;;7.87;;
13114;SDS011;6623;52.120;8.660;2023-03-21T11:35:19;14.97;;;8.03;;
13114;SDS011;6623;52.120;8.660;2023-03-21T11:37:52;12.60;;;7.93;;
13114;SDS011;6623;52.120;8.660;2023-03-21T11:40:24;11.10;;;7.63;;
13114;SDS011;6623;52.120;8.660;2023-03-21T11:42:55;13.17;;;7.23;;
13114;SDS011;6623;52.120;8.660;2023-03-21T11:45:22;14.97;;;6.90;;
13114;SDS011;6623;52.120;8.660;2023-03-21T11:47:51;12.13;;;7.03;;
13114;SDS011;6623;52.120;8.660;2023-03-21T11:58:33;13.73;;;7.23;;
13114;SDS011;6623;52.120;8.660;2023-03-21T12:01:12;9.93;;;6.77;;
13114;SDS011;6623;52.120;8.660;2023-03-21T12:04:13;8.73;;;6.37;;
13114;SDS011;6623;52.120;8.660;2023-03-21T12:15:18;11.77;;;7.20;;
13114;SDS011;6623;52.120;8.660;2023-03-21T12:17:53;10.97;;;6.90;;
13114;SDS011;6623;52.120;8.660;2023-03-21T12:20:46;10.80;;;6.63;;
13114;SDS011;6623;52.120;8.660;2023-03-21T12:23:20;10.83;;;6.63;;
13114;SDS011;6623;52.120;8.660;2023-03-21T12:31:23;10.20;;;6.93;;
13114;SDS011;6623;52.120;8.660;2023-03-21T12:39:49;9.63;;;6.33;;
13114;SDS011;6623;52.120;8.660;2023-03-21T12:42:33;10.50;;;6.87;;
13114;SDS011;6623;52.120;8.660;2023-03-21T12:45:18;7.93;;;6.47;;
13114;SDS011;6623;52.120;8.660;2023-03-21T12:47:54;11.20;;;7.03;;
13114;SDS011;6623;52.120;8.660;2023-03-21T12:50:29;10.13;;;6.80;;
13114;SDS011;6623;52.120;8.660;2023-03-21T12:53:13;11.23;;;6.20;;
13114;SDS011;6623;52.120;8.660;2023-03-21T12:56:00;12.10;;;6.43;;
13114;SDS011;6623;52.120;8.660;2023-03-21T12:58:40;10.17;;;6.80;;
13114;SDS011;6623;52.120;8.660;2023-03-21T13:01:10;10.30;;;6.63;;
13114;SDS011;6623;52.120;8.660;2023-03-21T13:03:40;10.93;;;6.60;;
13114;SDS011;6623;52.120;8.660;2023-03-21T13:06:09;12.67;;;6.77;;
13114;SDS011;6623;52.120;8.660;2023-03-21T13:08:46;10.27;;;6.47;;
13114;SDS011;6623;52.120;8.660;2023-03-21T13:11:37;12.53;;;6.30;;
13114;SDS011;6623;52.120;8.660;2023-03-21T13:14:07;8.07;;;5.90;;
13114;SDS011;6623;52.120;8.660;2023-03-21T13:16:51;10.07;;;6.10;;
13114;SDS011;6623;52.120;8.660;2023-03-21T13:19:40;10.37;;;6.03;;
13114;SDS011;6623;52.120;8.660;2023-03-21T13:27:34;12.07;;;6.77;;
13114;SDS011;6623;52.120;8.660;2023-03-21T13:32:32;8.70;;;5.03;;
13114;SDS011;6623;52.120;8.660;2023-03-21T13:35:02;10.13;;;5.30;;
13114;SDS011;6623;52.120;8.660;2023-03-21T13:38:01;9.23;;;5.40;;
13114;SDS011;6623;52.120;8.660;2023-03-21T13:46:11;8.47;;;4.57;;
13114;SDS011;6623;52.120;8.660;2023-03-21T13:51:18;10.60;;;4.83;;
13114;SDS011;6623;52.120;8.660;2023-03-21T13:54:02;8.27;;;4.60;;
13114;SDS011;6623;52.120;8.660;2023-03-21T13:56:28;7.73;;;4.73;;
13114;SDS011;6623;52.120;8.660;2023-03-21T14:01:57;9.67;;;5.27;;
13114;SDS011;6623;52.120;8.660;2023-03-21T14:04:25;9.10;;;5.17;;
13114;SDS011;6623;52.120;8.660;2023-03-21T14:06:57;7.27;;;5.20;;
13114;SDS011;6623;52.120;8.660;2023-03-21T14:12:12;7.63;;;4.50;;
13114;SDS011;6623;52.120;8.660;2023-03-21T14:14:42;7.20;;;4.10;;
13114;SDS011;6623;52.120;8.660;2023-03-21T14:17:14;7.83;;;3.87;;
13114;SDS011;6623;52.120;8.660;2023-03-21T14:19:54;5.23;;;3.33;;
13114;SDS011;6623;52.120;8.660;2023-03-21T14:22:22;8.20;;;3.90;;
13114;SDS011;6623;52.120;8.660;2023-03-21T14:24:55;7.43;;;3.50;;
13114;SDS011;6623;52.120;8.660;2023-03-21T14:27:27;7.13;;;3.40;;
13114;SDS011;6623;52.120;8.660;2023-03-21T14:29:58;7.20;;;3.83;;
13114;SDS011;6623;52.120;8.660;2023-03-21T14:32:26;6.00;;;3.70;;
13114;SDS011;6623;52.120;8.660;2023-03-21T14:34:53;6.00;;;3.43;;
13114;SDS011;6623;52.120;8.660;2023-03-21T14:37:36;5.53;;;3.20;;
13114;SDS011;6623;52.120;8.660;2023-03-21T14:40:06;5.30;;;3.60;;
13114;SDS011;6623;52.120;8.660;2023-03-21T14:42:46;7.03;;;3.60;;
13114;SDS011;6623;52.120;8.660;2023-03-21T14:45:24;5.40;;;3.60;;
13114;SDS011;6623;52.120;8.660;2023-03-21T14:50:52;7.63;;;3.70;;
13114;SDS011;6623;52.120;8.660;2023-03-21T14:53:20;7.90;;;3.77;;
13114;SDS011;6623;52.120;8.660;2023-03-21T14:55:58;5.80;;;3.20;;
13114;SDS011;6623;52.120;8.660;2023-03-21T14:58:33;6.73;;;3.47;;
13114;SDS011;6623;52.120;8.660;2023-03-21T15:01:03;7.43;;;3.37;;
13114;SDS011;6623;52.120;8.660;2023-03-21T15:03:32;5.73;;;3.50;;
13114;SDS011;6623;52.120;8.660;2023-03-21T15:05:58;6.17;;;3.33;;
13114;SDS011;6623;52.120;8.660;2023-03-21T15:08:26;6.37;;;3.57;;
13114;SDS011;6623;52.120;8.660;2023-03-21T15:16:13;5.23;;;3.47;;
13114;SDS011;6623;52.120;8.660;2023-03-21T15:18:39;6.23;;;3.67;;
13114;SDS011;6623;52.120;8.660;2023-03-21T15:21:11;5.17;;;3.37;;
13114;SDS011;6623;52.120;8.660;2023-03-21T15:23:45;6.00;;;3.37;;
13114;SDS011;6623;52.120;8.660;2023-03-21T15:26:15;6.33;;;3.40;;
13114;SDS011;6623;52.120;8.660;2023-03-21T15:28:44;4.80;;;3.03;;
13114;SDS011;6623;52.120;8.660;2023-03-21T15:31:21;4.10;;;3.00;;
13114;SDS011;6623;52.120;8.660;2023-03-21T15:33:50;7.83;;;2.93;;
13114;SDS011;6623;52.120;8.660;2023-03-21T15:36:18;5.93;;;3.43;;
13114;SDS011;6623;52.120;8.660;2023-03-21T15:38:46;5.27;;;3.20;;
13114;SDS011;6623;52.120;8.660;2023-03-21T15:43:44;5.03;;;3.10;;
13114;SDS011;6623;52.120;8.660;2023-03-21T15:46:30;4.80;;;3.00;;
13114;SDS011;6623;52.120;8.660;2023-03-21T15:49:15;4.27;;;2.60;;
13114;SDS011;6623;52.120;8.660;2023-03-21T15:51:46;4.70;;;2.83;;
13114;SDS011;6623;52.120;8.660;2023-03-21T15:54:22;3.57;;;2.33;;
13114;SDS011;6623;52.120;8.660;2023-03-21T15:56:58;4.63;;;2.53;;
13114;SDS011;6623;52.120;8.660;2023-03-21T15:59:38;4.13;;;2.80;;
13114;SDS011;6623;52.120;8.660;2023-03-21T16:02:13;5.40;;;2.50;;
13114;SDS011;6623;52.120;8.660;2023-03-21T16:07:23;4.17;;;2.17;;
13114;SDS011;6623;52.120;8.660;2023-03-21T16:09:49;3.27;;;2.07;;
13114;SDS011;6623;52.120;8.660;2023-03-21T16:12:25;4.60;;;2.40;;
13114;SDS011;6623;52.120;8.660;2023-03-21T16:14:51;3.83;;;2.00;;
13114;SDS011;6623;52.120;8.660;2023-03-21T16:20:01;3.60;;;1.90;;
13114;SDS011;6623;52.120;8.660;2023-03-21T16:22:30;4.30;;;1.90;;
13114;SDS011;6623;52.120;8.660;2023-03-21T16:24:59;4.80;;;2.00;;
13114;SDS011;6623;52.120;8.660;2023-03-21T16:27:25;3.07;;;2.03;;
13114;SDS011;6623;52.120;8.660;2023-03-21T16:29:51;4.73;;;2.03;;
13114;SDS011;6623;52.120;8.660;2023-03-21T16:32:16;3.43;;;1.90;;
13114;SDS011;6623;52.120;8.660;2023-03-21T16:34:42;4.60;;;1.80;;
13114;SDS011;6623;52.120;8.660;2023-03-21T16:37:10;4.77;;;1.83;;
13114;SDS011;6623;52.120;8.660;2023-03-21T16:39:39;3.10;;;2.10;;
13114;SDS011;6623;52.120;8.660;2023-03-21T16:42:05;3.10;;;1.80;;
13114;SDS011;6623;52.120;8.660;2023-03-21T16:44:31;3.43;;;1.60;;
13114;SDS011;6623;52.120;8.660;2023-03-21T16:46:57;6.47;;;1.97;;
13114;SDS011;6623;52.120;8.660;2023-03-21T16:49:24;2.07;;;1.60;;
13114;SDS011;6623;52.120;8.660;2023-03-21T16:51:51;3.57;;;1.93;;
13114;SDS011;6623;52.120;8.660;2023-03-21T16:54:18;3.07;;;2.00;;
13114;SDS011;6623;52.120;8.660;2023-03-21T16:56:46;6.47;;;1.97;;